Time;durP1;ratioP1;P1;durP2;ratioP2;P2;SDS_P1;SDS_P2;PMS_P1;PMS_P2;Temp;Humidity;BMP_temperature;BMP_pressure;BME280_temperature;BME280_humidity;BME280_pressure;Samples;Min_cycle;Max_cycle;Signal;HPM_P1;HPM_P2
2021/06/09 00:01:10;;;;;;;8.23;7.53;;;26.50;51.90;;;;;;4973341;28;20282;-66
2021/06/09 00:03:41;;;;;;;9.50;8.00;;;26.50;51.90;;;;;;4972251;28;20192;-65
2021/06/09 00:06:11;;;;;;;8.27;7.57;;;26.50;51.80;;;;;;4988717;28;20203;-65
2021/06/09 00:08:42;;;;;;;9.90;7.30;;;26.40;51.80;;;;;;4989168;28;20215;-65
2021/06/09 00:11:15;;;;;;;8.23;7.30;;;26.50;51.80;;;;;;4991068;28;20714;-66
2021/06/09 00:13:54;;;;;;;7.83;7.13;;;26.50;51.90;;;;;;4985184;28;20229;-65
2021/06/09 00:16:24;;;;;;;7.37;6.67;;;26.50;51.90;;;;;;4979076;28;20192;-66
2021/06/09 00:18:55;;;;;;;8.10;7.30;;;26.40;51.80;;;;;;4987264;28;20204;-66
2021/06/09 00:21:27;;;;;;;7.70;7.00;;;26.40;51.80;;;;;;4988619;28;20247;-65
2021/06/09 00:23:57;;;;;;;7.70;7.00;;;26.40;51.80;;;;;;4986431;28;20192;-66
2021/06/09 00:26:27;;;;;;;8.43;7.63;;;26.40;51.80;;;;;;4989931;28;20757;-66
2021/06/09 00:28:57;;;;;;;11.73;7.93;;;26.40;51.70;;;;;;4987373;28;20700;-66
2021/06/09 00:31:40;;;;;;;8.30;7.53;;;26.30;51.70;;;;;;4989520;28;20730;-66
2021/06/09 00:34:13;;;;;;;8.63;8.00;;;26.40;51.90;;;;;;4971747;28;20205;-66
2021/06/09 00:36:42;;;;;;;8.67;7.87;;;26.30;51.70;;;;;;4983082;28;20229;-66
2021/06/09 00:39:14;;;;;;;8.40;7.63;;;26.30;51.70;;;;;;4987161;28;20196;-66
2021/06/09 00:41:43;;;;;;;9.10;8.33;;;26.30;51.70;;;;;;4989745;28;20201;-66
2021/06/09 00:44:11;;;;;;;9.13;8.23;;;26.30;51.50;;;;;;4979578;28;20211;-66
2021/06/09 00:46:44;;;;;;;9.30;8.60;;;26.30;51.60;;;;;;4988094;28;20193;-66
2021/06/09 00:49:15;;;;;;;9.93;8.40;;;26.30;51.60;;;;;;4988025;28;20665;-66
2021/06/09 00:51:47;;;;;;;9.23;8.50;;;26.30;51.60;;;;;;4969556;28;20219;-66
2021/06/09 00:54:15;;;;;;;9.07;8.27;;;26.30;51.50;;;;;;4975817;28;20897;-66
2021/06/09 00:56:47;;;;;;;9.37;8.00;;;26.30;51.50;;;;;;4987736;28;20189;-66
2021/06/09 00:59:15;;;;;;;9.63;8.73;;;26.30;51.30;;;;;;4994079;28;20212;-66
2021/06/09 01:01:52;;;;;;;8.90;8.20;;;26.30;51.50;;;;;;4965297;28;20552;-66
2021/06/09 01:04:23;;;;;;;9.10;8.40;;;26.20;51.30;;;;;;4987625;28;20262;-66
2021/06/09 01:06:51;;;;;;;9.37;8.57;;;26.20;51.40;;;;;;4988134;28;20224;-66
2021/06/09 01:09:27;;;;;;;9.53;8.73;;;26.20;51.30;;;;;;4973697;28;20226;-66
2021/06/09 01:12:02;;;;;;;8.87;8.07;;;26.20;51.30;;;;;;4999887;28;20959;-65
2021/06/09 01:14:37;;;;;;;10.03;9.20;;;26.20;51.20;;;;;;4986989;28;20200;-66
2021/06/09 01:17:05;;;;;;;9.50;8.77;;;26.20;51.20;;;;;;4970633;28;20224;-66
2021/06/09 01:19:38;;;;;;;9.63;8.73;;;26.20;51.20;;;;;;4971141;28;20597;-66
2021/06/09 01:22:07;;;;;;;9.13;8.23;;;26.20;51.20;;;;;;4970708;28;20851;-66
2021/06/09 01:24:40;;;;;;;8.83;8.03;;;26.20;51.20;;;;;;4988297;28;20204;-66
2021/06/09 01:27:11;;;;;;;9.47;8.57;;;26.20;51.20;;;;;;4989218;28;20212;-66
2021/06/09 01:29:43;;;;;;;9.63;8.83;;;26.10;51.00;;;;;;4989950;28;20220;-65
2021/06/09 01:32:15;;;;;;;9.33;8.43;;;26.20;51.20;;;;;;4981149;28;20317;-66
2021/06/09 01:34:45;;;;;;;10.03;9.13;;;26.10;51.10;;;;;;4991786;28;20235;-66
2021/06/09 01:37:19;;;;;;;9.30;8.50;;;26.10;51.20;;;;;;4992337;28;20232;-66
2021/06/09 01:39:49;;;;;;;8.40;7.70;;;26.10;51.20;;;;;;4973207;28;20207;-65
2021/06/09 01:42:55;;;;;;;9.07;8.37;;;26.10;51.10;;;;;;4990020;28;20242;-65
2021/06/09 01:45:27;;;;;;;9.63;8.83;;;26.10;51.10;;;;;;4986640;28;20205;-66
2021/06/09 01:48:04;;;;;;;9.57;8.77;;;26.10;51.10;;;;;;4969715;28;20577;-66
2021/06/09 01:50:33;;;;;;;9.53;8.70;;;26.10;51.00;;;;;;4991431;28;20220;-66
2021/06/09 01:53:10;;;;;;;9.77;8.97;;;26.10;51.00;;;;;;4975027;28;20219;-66
2021/06/09 01:55:45;;;;;;;10.33;9.10;;;26.10;50.90;;;;;;4974422;28;20188;-66
2021/06/09 01:58:17;;;;;;;9.97;9.07;;;26.10;50.90;;;;;;4991035;28;20205;-66
2021/06/09 02:00:52;;;;;;;9.83;8.93;;;26.10;50.90;;;;;;4980723;28;20201;-66
2021/06/09 02:03:21;;;;;;;9.63;8.83;;;26.10;50.90;;;;;;4988814;28;20233;-66
2021/06/09 02:05:53;;;;;;;10.60;9.43;;;26.10;50.80;;;;;;4988702;28;20204;-66
2021/06/09 02:08:28;;;;;;;10.57;9.53;;;26.10;50.80;;;;;;4988897;28;20220;-66
2021/06/09 02:11:04;;;;;;;9.30;8.60;;;26.00;50.70;;;;;;4991155;28;20263;-66
2021/06/09 02:13:51;;;;;;;10.40;9.60;;;26.00;50.70;;;;;;4988014;28;20192;-66
2021/06/09 02:16:23;;;;;;;9.80;9.00;;;26.00;50.70;;;;;;4990700;28;20802;-66
2021/06/09 02:18:50;;;;;;;10.13;9.33;;;26.00;50.80;;;;;;4988593;28;20197;-66
2021/06/09 02:21:20;;;;;;;10.70;9.73;;;26.00;50.70;;;;;;4974290;28;20690;-66
2021/06/09 02:23:49;;;;;;;10.70;9.70;;;26.00;50.60;;;;;;4988085;28;20216;-66
2021/06/09 02:26:20;;;;;;;9.77;8.97;;;25.90;50.60;;;;;;4974244;28;20230;-66
2021/06/09 02:28:53;;;;;;;10.17;9.37;;;26.00;50.60;;;;;;4973221;28;20530;-66
2021/06/09 02:31:23;;;;;;;10.23;9.33;;;25.90;50.60;;;;;;4964496;28;20233;-66
2021/06/09 02:33:55;;;;;;;9.53;8.73;;;26.00;50.50;;;;;;4987839;28;20232;-66
2021/06/09 02:36:25;;;;;;;10.90;10.00;;;26.00;50.60;;;;;;4989391;28;20204;-66
2021/06/09 02:38:57;;;;;;;10.57;9.50;;;26.00;50.60;;;;;;4990093;28;20203;-65
2021/06/09 02:41:28;;;;;;;10.50;9.70;;;26.00;50.60;;;;;;4972819;28;20736;-66
2021/06/09 02:44:00;;;;;;;10.43;9.53;;;25.90;50.50;;;;;;4988290;28;20550;-66
2021/06/09 02:46:34;;;;;;;10.20;9.20;;;25.90;50.40;;;;;;4987257;28;20204;-66
2021/06/09 02:49:16;;;;;;;10.27;9.47;;;25.90;50.50;;;;;;4990374;28;20291;-66
2021/06/09 02:51:56;;;;;;;11.10;10.07;;;25.90;50.60;;;;;;4973120;28;20673;-66
2021/06/09 02:54:46;;;;;;;10.90;10.03;;;25.90;50.60;;;;;;4974150;28;20206;-66
2021/06/09 02:57:21;;;;;;;10.20;9.30;;;25.90;50.50;;;;;;4989213;28;20653;-66
2021/06/09 03:00:15;;;;;;;11.10;10.20;;;25.90;50.50;;;;;;4985129;28;20200;-66
2021/06/09 03:03:15;;;;;;;10.87;9.97;;;25.90;50.40;;;;;;4987906;28;20192;-66
2021/06/09 03:06:10;;;;;;;11.70;10.60;;;25.90;50.40;;;;;;4991824;28;20212;-66
2021/06/09 03:08:57;;;;;;;11.00;9.87;;;25.90;50.40;;;;;;4993148;28;20814;-64
2021/06/09 03:11:36;;;;;;;11.30;10.37;;;25.90;50.40;;;;;;4969516;28;20275;-66
2021/06/09 03:17:59;;;;;;;11.20;10.20;;;25.90;50.40;;;;;;4989580;28;20611;-66
2021/06/09 03:21:00;;;;;;;10.70;9.70;;;25.90;50.40;;;;;;4972823;28;20204;-65
2021/06/09 03:23:41;;;;;;;10.50;9.60;;;25.80;50.40;;;;;;4929202;29;20214;-66
2021/06/09 03:26:26;;;;;;;10.67;9.67;;;25.80;50.30;;;;;;4987699;28;20199;-66
2021/06/09 03:29:31;;;;;;;11.17;10.17;;;25.80;50.40;;;;;;4990228;28;20299;-65
2021/06/09 03:32:10;;;;;;;11.57;10.43;;;25.70;50.30;;;;;;4989033;28;20189;-65
2021/06/09 03:34:47;;;;;;;11.00;10.10;;;25.80;50.30;;;;;;4973732;28;20208;-66
2021/06/09 03:37:24;;;;;;;12.37;11.17;;;25.80;50.40;;;;;;4977415;28;20223;-66
2021/06/09 03:40:04;;;;;;;11.67;10.67;;;25.80;50.40;;;;;;4972289;28;20201;-66
2021/06/09 03:42:36;;;;;;;11.03;10.03;;;25.70;50.30;;;;;;4961040;28;20210;-71
2021/06/09 03:45:07;;;;;;;11.43;10.03;;;25.80;50.50;;;;;;4987936;28;20624;-69
2021/06/09 03:47:35;;;;;;;11.83;10.63;;;25.80;50.70;;;;;;4961584;28;20209;-69
2021/06/09 03:50:09;;;;;;;11.73;10.73;;;25.80;50.70;;;;;;4959874;28;20230;-69
2021/06/09 03:52:40;;;;;;;12.13;11.10;;;25.80;50.60;;;;;;4974704;28;20245;-68
2021/06/09 03:55:13;;;;;;;11.07;10.10;;;25.90;50.70;;;;;;4989127;28;20192;-66
2021/06/09 03:57:42;;;;;;;11.63;10.43;;;25.90;50.50;;;;;;4961471;28;20235;-71
2021/06/09 04:00:13;;;;;;;11.23;10.30;;;25.90;50.50;;;;;;4968839;28;20205;-69
2021/06/09 04:02:46;;;;;;;13.60;11.27;;;25.90;50.30;;;;;;4989993;28;20204;-71
2021/06/09 04:05:14;;;;;;;11.20;10.20;;;26.00;50.40;;;;;;4986349;28;20224;-67
2021/06/09 04:07:46;;;;;;;11.50;10.53;;;26.00;50.20;;;;;;4984146;28;20227;-67
2021/06/09 04:10:19;;;;;;;12.40;11.10;;;25.90;50.00;;;;;;4987438;28;20212;-67
2021/06/09 04:12:47;;;;;;;11.77;10.77;;;25.90;49.90;;;;;;4988225;28;20674;-67
2021/06/09 04:15:17;;;;;;;12.10;11.10;;;25.90;49.90;;;;;;4984779;28;20251;-65
2021/06/09 04:18:06;;;;;;;12.03;10.87;;;25.90;50.10;;;;;;4991718;28;20215;-65
2021/06/09 04:20:44;;;;;;;10.63;9.73;;;25.90;50.00;;;;;;4976145;28;20228;-63
2021/06/09 04:23:13;;;;;;;8.97;8.27;;;25.90;49.70;;;;;;4984736;28;20222;-64
2021/06/09 04:25:45;;;;;;;13.07;10.32;;;25.80;49.50;;;;;;4984886;28;20449;-66
2021/06/09 04:28:20;;;;;;;12.63;11.53;;;25.80;50.10;;;;;;4986190;28;20239;-66
2021/06/09 04:31:08;;;;;;;13.27;11.97;;;25.80;49.90;;;;;;4980925;28;20215;-66
2021/06/09 04:33:39;;;;;;;13.27;11.97;;;25.80;50.00;;;;;;4985745;28;20200;-66
2021/06/09 04:36:17;;;;;;;16.53;11.67;;;25.80;49.90;;;;;;4990632;28;20260;-66
2021/06/09 04:39:03;;;;;;;13.33;12.17;;;25.80;49.90;;;;;;4987607;28;20212;-66
2021/06/09 04:41:33;;;;;;;12.70;11.43;;;25.80;50.00;;;;;;4990868;28;20210;-66
2021/06/09 04:44:03;;;;;;;12.53;11.37;;;25.70;50.10;;;;;;4973755;28;20200;-66
2021/06/09 04:46:35;;;;;;;12.67;11.47;;;25.80;50.20;;;;;;4973855;28;20273;-68
2021/06/09 04:49:28;;;;;;;12.67;11.67;;;25.70;50.20;;;;;;4976133;28;20184;-68
2021/06/09 04:52:00;;;;;;;12.70;11.53;;;25.70;50.30;;;;;;4980419;28;20224;-69
2021/06/09 04:54:35;;;;;;;12.43;11.33;;;25.70;50.30;;;;;;4960837;28;20597;-69
2021/06/09 04:57:08;;;;;;;12.90;11.70;;;25.70;50.40;;;;;;4991246;28;20275;-69
2021/06/09 04:59:37;;;;;;;13.63;12.40;;;25.70;50.50;;;;;;4964789;28;20203;-68
2021/06/09 05:02:08;;;;;;;13.33;11.93;;;25.70;50.60;;;;;;4986330;28;20275;-66
2021/06/09 05:04:37;;;;;;;13.47;12.37;;;25.70;50.60;;;;;;4992459;28;20205;-66
2021/06/09 05:07:09;;;;;;;22.53;14.73;;;25.70;50.60;;;;;;4992403;28;20614;-66
2021/06/09 05:09:44;;;;;;;32.63;19.20;;;25.70;50.60;;;;;;4987536;28;20195;-66
2021/06/09 05:12:29;;;;;;;48.23;26.20;;;25.70;50.90;;;;;;4994106;28;20263;-68
2021/06/09 05:15:08;;;;;;;49.57;25.97;;;25.70;51.80;;;;;;5007883;28;20194;-68
2021/06/09 05:17:48;;;;;;;37.83;24.33;;;25.70;52.20;;;;;;4961479;28;20215;-66
2021/06/09 05:20:33;;;;;;;25.37;22.60;;;25.70;52.20;;;;;;4991101;28;20213;-65
2021/06/09 05:23:26;;;;;;;33.73;22.93;;;25.70;51.80;;;;;;4988860;28;20205;-64
2021/06/09 05:25:59;;;;;;;52.27;29.53;;;25.70;52.00;;;;;;4992741;28;20227;-68
2021/06/09 05:28:34;;;;;;;40.40;29.30;;;25.70;53.80;;;;;;4992985;28;20215;-70
2021/06/09 05:31:05;;;;;;;33.20;27.13;;;25.70;53.90;;;;;;4979134;28;20219;-69
2021/06/09 05:33:42;;;;;;;36.53;29.87;;;25.80;53.80;;;;;;4974888;28;20208;-64
2021/06/09 05:36:13;;;;;;;44.33;31.83;;;25.80;53.30;;;;;;4993607;28;20203;-66
2021/06/09 05:38:49;;;;;;;56.60;31.93;;;25.80;53.10;;;;;;4975432;28;20531;-67
2021/06/09 05:41:19;;;;;;;50.50;28.43;;;25.80;52.90;;;;;;4997178;28;20207;-69
2021/06/09 05:43:49;;;;;;;48.37;27.33;;;25.80;53.30;;;;;;4982865;28;20649;-67
2021/06/09 05:46:20;;;;;;;37.93;24.53;;;25.80;52.90;;;;;;4992211;28;20211;-66
2021/06/09 05:48:52;;;;;;;36.83;24.27;;;25.90;52.70;;;;;;4991971;28;20208;-66
2021/06/09 05:51:24;;;;;;;33.87;23.33;;;25.90;52.60;;;;;;4992900;28;20784;-67
2021/06/09 05:53:57;;;;;;;29.70;23.07;;;25.90;52.60;;;;;;4991890;28;20528;-68
2021/06/09 05:56:24;;;;;;;29.90;23.83;;;25.90;52.40;;;;;;4973976;28;20729;-68
2021/06/09 05:58:56;;;;;;;30.37;27.17;;;25.90;52.60;;;;;;4990508;28;20847;-67
2021/06/09 06:01:30;;;;;;;32.67;29.33;;;25.90;52.30;;;;;;4991287;28;20660;-66
2021/06/09 06:04:26;;;;;;;29.87;26.93;;;25.80;52.60;;;;;;4999307;28;20597;-68
2021/06/09 06:06:56;;;;;;;29.83;27.03;;;25.80;52.30;;;;;;4992477;28;20213;-70
2021/06/09 06:09:29;;;;;;;27.80;25.30;;;25.80;52.20;;;;;;4976792;28;20216;-70
2021/06/09 06:11:59;;;;;;;28.23;25.80;;;25.80;52.10;;;;;;4988306;28;20240;-70
2021/06/09 06:14:29;;;;;;;27.90;25.17;;;25.80;52.00;;;;;;4990681;28;20290;-69
2021/06/09 06:17:01;;;;;;;28.63;25.90;;;25.80;52.00;;;;;;4990455;28;20554;-69
2021/06/09 06:19:34;;;;;;;24.87;22.67;;;25.80;51.90;;;;;;4993565;28;20208;-70
2021/06/09 06:22:11;;;;;;;24.97;22.80;;;25.80;51.90;;;;;;4975492;28;20204;-67
2021/06/09 06:24:42;;;;;;;26.67;24.30;;;25.80;51.70;;;;;;4990047;28;20214;-68
2021/06/09 06:27:14;;;;;;;27.43;24.97;;;25.80;51.70;;;;;;4974759;28;20200;-66
2021/06/09 06:29:46;;;;;;;25.90;23.70;;;25.80;51.70;;;;;;4992629;28;20213;-68
2021/06/09 06:32:17;;;;;;;27.00;24.23;;;25.80;51.70;;;;;;4991695;28;20224;-68
2021/06/09 06:34:52;;;;;;;26.47;24.03;;;25.80;51.60;;;;;;4972673;28;20228;-68
2021/06/09 06:37:24;;;;;;;25.77;23.37;;;25.80;51.60;;;;;;4997123;28;20211;-69
2021/06/09 06:39:56;;;;;;;25.70;23.27;;;25.80;51.60;;;;;;4989734;28;20212;-68
2021/06/09 06:42:26;;;;;;;27.70;25.20;;;25.80;52.20;;;;;;4959512;28;20212;-67
2021/06/09 06:44:57;;;;;;;26.87;24.57;;;25.80;52.10;;;;;;4991702;28;20200;-67
2021/06/09 06:47:30;;;;;;;26.20;23.90;;;25.90;52.90;;;;;;4985203;28;20211;-69
2021/06/09 06:50:05;;;;;;;25.57;23.17;;;25.90;52.70;;;;;;4993466;28;20208;-68
2021/06/09 06:52:36;;;;;;;28.10;25.07;;;25.90;52.50;;;;;;4988956;28;20234;-67
2021/06/09 06:55:07;;;;;;;24.20;22.00;;;25.90;52.50;;;;;;4989375;28;20539;-67
2021/06/09 06:57:36;;;;;;;22.87;20.77;;;25.90;52.60;;;;;;4989521;28;20699;-69
2021/06/09 07:00:13;;;;;;;25.23;23.03;;;25.90;52.40;;;;;;4991519;28;20193;-67
2021/06/09 07:02:47;;;;;;;25.30;23.10;;;25.90;52.40;;;;;;4991712;28;20207;-67
2021/06/09 07:05:48;;;;;;;24.30;22.07;;;25.90;52.40;;;;;;4975601;28;20570;-66
2021/06/09 07:08:20;;;;;;;25.73;23.20;;;25.90;52.20;;;;;;4990142;28;20211;-67
2021/06/09 07:10:51;;;;;;;25.93;23.47;;;25.90;52.00;;;;;;4978301;28;20231;-67
2021/06/09 07:13:23;;;;;;;24.70;22.30;;;25.90;51.80;;;;;;4988401;28;20298;-67
2021/06/09 07:16:00;;;;;;;26.67;24.10;;;25.90;52.10;;;;;;4989285;28;20856;-68
2021/06/09 07:18:31;;;;;;;27.70;25.20;;;25.90;53.00;;;;;;4996140;28;20232;-68
2021/06/09 07:21:01;;;;;;;24.93;22.67;;;25.80;53.30;;;;;;4988752;28;20294;-70
2021/06/09 07:23:38;;;;;;;23.30;21.23;;;25.90;54.40;;;;;;4990476;28;20205;-70
2021/06/09 07:26:18;;;;;;;22.50;20.53;;;25.90;56.00;;;;;;4990889;28;20200;-70
2021/06/09 07:28:57;;;;;;;20.83;18.87;;;25.90;55.90;;;;;;4975250;28;20216;-69
2021/06/09 07:32:01;;;;;;;19.53;17.67;;;25.90;55.90;;;;;;4978479;28;20692;-70
2021/06/09 07:34:29;;;;;;;19.20;17.50;;;25.90;56.20;;;;;;4995595;28;20200;-70
2021/06/09 07:37:01;;;;;;;18.37;16.77;;;25.90;56.60;;;;;;4967567;28;20192;-68
2021/06/09 07:39:41;;;;;;;16.80;15.30;;;25.90;56.60;;;;;;4986744;28;20204;-68
2021/06/09 07:42:28;;;;;;;17.53;16.03;;;25.90;56.80;;;;;;4990451;28;20204;-67
2021/06/09 07:45:13;;;;;;;15.60;14.23;;;26.00;57.00;;;;;;4989207;28;20263;-66
2021/06/09 07:47:55;;;;;;;14.83;13.53;;;26.00;57.30;;;;;;4988612;28;20225;-67
2021/06/09 07:50:47;;;;;;;14.60;13.30;;;26.00;57.30;;;;;;4992016;28;20224;-67
2021/06/09 07:53:16;;;;;;;14.00;12.80;;;26.00;57.30;;;;;;4973644;28;20199;-66
2021/06/09 07:55:46;;;;;;;15.10;13.77;;;26.00;57.60;;;;;;4990999;28;20288;-69
2021/06/09 07:58:21;;;;;;;13.80;12.60;;;26.00;57.40;;;;;;4987923;28;20223;-69
2021/06/09 08:00:57;;;;;;;14.07;12.80;;;26.00;57.40;;;;;;4980551;28;20204;-69
2021/06/09 08:03:36;;;;;;;12.23;11.23;;;26.00;57.50;;;;;;4970690;28;20259;-70
2021/06/09 08:06:07;;;;;;;11.50;10.60;;;26.00;58.00;;;;;;4974704;28;20220;-69
2021/06/09 08:08:40;;;;;;;12.00;11.00;;;26.00;58.20;;;;;;4987084;28;20584;-69
2021/06/09 08:11:10;;;;;;;11.40;10.50;;;26.00;58.40;;;;;;4989973;28;20224;-68
2021/06/09 08:14:03;;;;;;;12.00;10.07;;;26.00;58.40;;;;;;4969310;28;20240;-68
2021/06/09 08:16:53;;;;;;;10.83;9.77;;;26.00;58.50;;;;;;4972117;28;20221;-68
2021/06/09 08:19:22;;;;;;;10.57;9.70;;;26.00;58.60;;;;;;4963332;28;20201;-68
2021/06/09 08:21:52;;;;;;;9.90;9.03;;;26.10;58.80;;;;;;4972314;28;20206;-68
2021/06/09 08:24:22;;;;;;;9.20;8.50;;;26.10;58.80;;;;;;4977160;28;20583;-68
2021/06/09 08:27:01;;;;;;;9.60;8.70;;;26.10;58.80;;;;;;4971310;28;20231;-68
2021/06/09 08:29:34;;;;;;;9.27;8.47;;;26.10;58.80;;;;;;4974265;28;20244;-68
2021/06/09 08:32:07;;;;;;;8.63;7.87;;;26.10;58.80;;;;;;4973919;28;20224;-68
2021/06/09 08:34:38;;;;;;;8.97;8.27;;;26.10;58.70;;;;;;4982507;28;20915;-68
2021/06/09 08:37:08;;;;;;;8.87;8.17;;;26.10;58.90;;;;;;4972567;28;21055;-70
2021/06/09 08:39:42;;;;;;;8.47;7.77;;;26.10;58.90;;;;;;4975869;28;20506;-70
2021/06/09 08:42:13;;;;;;;8.43;7.80;;;26.10;59.00;;;;;;4973165;28;20209;-67
2021/06/09 08:44:47;;;;;;;8.93;8.23;;;26.10;59.10;;;;;;4974814;28;20224;-67
2021/06/09 08:47:21;;;;;;;8.07;7.47;;;26.10;59.10;;;;;;4957689;28;20192;-68
2021/06/09 08:50:12;;;;;;;7.97;7.37;;;26.10;59.20;;;;;;4974765;28;20213;-68
2021/06/09 08:52:53;;;;;;;7.47;6.87;;;26.10;58.80;;;;;;4992692;28;20208;-69
2021/06/09 08:55:24;;;;;;;8.20;7.50;;;26.20;58.50;;;;;;4974058;28;20275;-69
2021/06/09 08:57:56;;;;;;;8.43;7.73;;;26.20;58.20;;;;;;4976154;28;20193;-69
2021/06/09 09:00:29;;;;;;;7.87;7.17;;;26.20;58.00;;;;;;4968251;28;20213;-68
2021/06/09 09:03:00;;;;;;;9.07;8.37;;;26.20;58.60;;;;;;4970089;28;20196;-68
2021/06/09 09:05:51;;;;;;;8.10;7.40;;;26.20;59.20;;;;;;4982705;28;20197;-68
2021/06/09 09:08:22;;;;;;;7.90;7.30;;;26.20;59.50;;;;;;4976361;28;20376;-69
2021/06/09 09:10:53;;;;;;;7.77;7.17;;;26.30;59.70;;;;;;4971607;28;20829;-67
2021/06/09 09:13:25;;;;;;;7.97;7.37;;;26.30;59.60;;;;;;4966414;28;20232;-65
2021/06/09 09:16:07;;;;;;;7.73;7.13;;;26.30;59.40;;;;;;4989067;28;20590;-67
2021/06/09 09:18:57;;;;;;;8.27;7.57;;;26.30;59.40;;;;;;4974525;28;20204;-67
2021/06/09 09:21:42;;;;;;;7.60;7.00;;;26.30;59.50;;;;;;4975737;28;20197;-67
2021/06/09 09:24:14;;;;;;;8.03;7.33;;;26.30;59.40;;;;;;4986377;28;20278;-67
2021/06/09 09:26:50;;;;;;;7.87;7.17;;;26.30;59.50;;;;;;4974708;28;20207;-66
2021/06/09 09:29:23;;;;;;;7.70;7.10;;;26.30;59.60;;;;;;4985818;28;20266;-66
2021/06/09 09:32:04;;;;;;;8.20;7.50;;;26.30;59.40;;;;;;4987024;28;20236;-67
2021/06/09 09:34:46;;;;;;;7.50;6.90;;;26.30;59.30;;;;;;4989274;28;20255;-67
2021/06/09 09:37:24;;;;;;;7.77;7.07;;;26.30;59.40;;;;;;4987738;28;20222;-66
2021/06/09 09:40:17;;;;;;;7.60;7.00;;;26.30;59.20;;;;;;4993331;28;20797;-69
2021/06/09 09:42:50;;;;;;;7.90;7.20;;;26.40;59.20;;;;;;4996017;28;20672;-68
2021/06/09 09:45:32;;;;;;;7.90;7.30;;;26.40;58.70;;;;;;4989873;28;20204;-67
2021/06/09 09:48:08;;;;;;;8.43;7.60;;;26.40;57.80;;;;;;4953332;28;20204;-66
2021/06/09 09:50:49;;;;;;;8.80;7.90;;;26.50;57.10;;;;;;4990755;28;20211;-67
2021/06/09 09:53:37;;;;;;;8.23;7.43;;;26.50;57.00;;;;;;4972253;28;20216;-69
2021/06/09 09:56:18;;;;;;;10.07;7.77;;;26.50;57.00;;;;;;4963725;28;20228;-69
2021/06/09 09:59:03;;;;;;;8.23;7.43;;;26.50;57.50;;;;;;4989995;28;20196;-68
2021/06/09 10:02:04;;;;;;;8.50;7.63;;;26.50;57.70;;;;;;4969961;28;20660;-68
2021/06/09 10:04:35;;;;;;;7.97;7.17;;;26.50;57.40;;;;;;4988093;28;20220;-68
2021/06/09 10:07:10;;;;;;;8.20;7.40;;;26.60;57.80;;;;;;4989690;28;20215;-67
2021/06/09 10:09:43;;;;;;;8.40;7.60;;;26.60;57.80;;;;;;4993819;28;20254;-67
2021/06/09 10:12:16;;;;;;;7.43;6.73;;;26.60;57.60;;;;;;4979027;28;20728;-68
2021/06/09 10:14:52;;;;;;;7.77;6.90;;;26.60;57.40;;;;;;4987872;28;20637;-67
2021/06/09 10:17:33;;;;;;;6.90;6.30;;;26.60;57.50;;;;;;4989625;28;20675;-66
2021/06/09 10:20:09;;;;;;;7.37;6.67;;;26.60;57.50;;;;;;4991023;28;20200;-66
2021/06/09 10:22:41;;;;;;;7.47;6.87;;;26.60;57.90;;;;;;4989609;28;20230;-66
2021/06/09 10:25:19;;;;;;;7.13;6.53;;;26.60;57.70;;;;;;4989651;28;20227;-68
2021/06/09 10:27:51;;;;;;;6.73;6.23;;;26.60;57.50;;;;;;4989578;28;20203;-68
2021/06/09 10:30:27;;;;;;;7.70;6.73;;;26.60;57.30;;;;;;4988206;28;20219;-68
2021/06/09 10:33:04;;;;;;;6.77;6.17;;;26.60;57.30;;;;;;4976828;28;20216;-69
2021/06/09 10:35:42;;;;;;;7.63;6.90;;;26.60;57.30;;;;;;4993995;28;20215;-65
2021/06/09 10:38:19;;;;;;;6.30;5.70;;;26.60;57.30;;;;;;4989996;28;20192;-67
2021/06/09 10:40:53;;;;;;;6.67;6.07;;;26.70;57.00;;;;;;4971292;28;20624;-68
2021/06/09 10:43:27;;;;;;;6.80;6.30;;;26.70;56.90;;;;;;4968588;28;20221;-69
2021/06/09 10:45:57;;;;;;;6.63;6.03;;;26.70;57.00;;;;;;4952667;28;20204;-68
2021/06/09 10:48:30;;;;;;;5.63;5.23;;;26.70;56.80;;;;;;4986219;28;20680;-68
2021/06/09 10:51:03;;;;;;;6.40;5.90;;;26.70;56.30;;;;;;4994040;28;20763;-68
2021/06/09 10:53:35;;;;;;;6.00;5.50;;;26.70;56.40;;;;;;4970767;28;20236;-69
2021/06/09 10:56:04;;;;;;;6.23;5.63;;;26.70;56.20;;;;;;4986639;28;20222;-68
2021/06/09 10:58:36;;;;;;;6.20;5.50;;;26.80;56.40;;;;;;4989555;28;20205;-69
2021/06/09 11:01:07;;;;;;;6.40;5.90;;;26.80;56.20;;;;;;4988531;28;20192;-68
2021/06/09 11:03:42;;;;;;;5.87;5.47;;;26.80;56.20;;;;;;4979048;28;20218;-68
2021/06/09 11:06:59;;;;;;;6.10;5.60;;;26.80;55.90;;;;;;4971522;28;20312;-68
2021/06/09 11:09:29;;;;;;;5.70;5.20;;;26.80;56.00;;;;;;4979545;28;20262;-68
2021/06/09 11:12:20;;;;;;;6.33;5.73;;;26.80;55.50;;;;;;4986859;28;20232;-67
2021/06/09 11:15:07;;;;;;;6.20;5.70;;;26.90;55.50;;;;;;4982291;28;20310;-67
2021/06/09 11:17:54;;;;;;;6.97;6.37;;;26.90;55.30;;;;;;4981920;28;20196;-68
2021/06/09 11:20:37;;;;;;;6.23;5.73;;;26.80;55.10;;;;;;4972933;28;20196;-67
2021/06/09 11:23:40;;;;;;;5.57;5.17;;;26.90;55.10;;;;;;4991499;28;20207;-66
2021/06/09 11:26:30;;;;;;;6.17;5.67;;;26.90;55.00;;;;;;4973725;28;20568;-68
2021/06/09 11:29:01;;;;;;;5.70;5.30;;;26.90;54.90;;;;;;4988050;28;20794;-67
2021/06/09 11:31:31;;;;;;;6.17;5.67;;;27.00;54.60;;;;;;4980362;28;20284;-67
2021/06/09 11:34:08;;;;;;;5.80;5.40;;;26.90;54.50;;;;;;4989554;28;20196;-67
2021/06/09 11:36:43;;;;;;;5.53;5.13;;;27.00;54.50;;;;;;4986289;28;20630;-68
2021/06/09 11:39:24;;;;;;;5.60;5.20;;;27.00;54.40;;;;;;4988498;28;20606;-68
2021/06/09 11:41:57;;;;;;;5.57;5.10;;;27.00;54.40;;;;;;4988186;28;20184;-68
2021/06/09 11:44:39;;;;;;;5.40;5.00;;;27.00;54.30;;;;;;4984359;28;20235;-68
2021/06/09 11:47:39;;;;;;;5.20;4.83;;;27.00;54.30;;;;;;4972869;28;20188;-68
2021/06/09 11:50:30;;;;;;;5.03;4.63;;;27.10;54.30;;;;;;4976035;28;20209;-68
2021/06/09 11:53:13;;;;;;;5.13;4.73;;;27.10;54.20;;;;;;4988817;28;20814;-67
2021/06/09 11:55:41;;;;;;;4.83;4.43;;;27.10;54.10;;;;;;4981943;28;20622;-67
2021/06/09 11:58:16;;;;;;;5.10;4.70;;;27.10;54.20;;;;;;4987557;28;20212;-67
2021/06/09 12:01:08;;;;;;;5.73;5.23;;;27.10;54.20;;;;;;4987126;28;20189;-67
2021/06/09 12:03:42;;;;;;;5.20;4.80;;;27.10;54.20;;;;;;4959387;28;20695;-67
2021/06/09 12:06:21;;;;;;;5.40;5.00;;;27.20;54.30;;;;;;4986499;28;20224;-66
2021/06/09 12:09:03;;;;;;;5.07;4.67;;;27.20;54.40;;;;;;4989499;28;20208;-66
2021/06/09 12:11:35;;;;;;;5.23;4.83;;;27.20;54.60;;;;;;4985167;28;20207;-66
2021/06/09 12:14:22;;;;;;;5.40;5.00;;;27.20;54.30;;;;;;4983722;28;20294;-66
2021/06/09 12:17:24;;;;;;;4.80;4.40;;;27.20;54.10;;;;;;4976884;28;20219;-69
2021/06/09 12:20:12;;;;;;;5.53;5.03;;;27.20;54.00;;;;;;4982920;28;20887;-69
2021/06/09 12:22:56;;;;;;;5.10;4.60;;;27.20;54.00;;;;;;4987084;28;20200;-69
2021/06/09 12:25:31;;;;;;;4.73;4.43;;;27.20;53.90;;;;;;4993852;28;20203;-68
2021/06/09 12:28:14;;;;;;;4.60;4.30;;;27.20;53.70;;;;;;4990253;28;20215;-67
2021/06/09 12:30:51;;;;;;;4.90;4.40;;;27.30;54.00;;;;;;4987160;28;20215;-67
2021/06/09 12:33:33;;;;;;;5.20;4.80;;;27.30;53.90;;;;;;4981602;28;20649;-66
2021/06/09 12:36:01;;;;;;;4.80;4.50;;;27.30;53.90;;;;;;4970293;28;20200;-68
2021/06/09 12:38:30;;;;;;;4.90;4.50;;;27.30;54.00;;;;;;4970619;28;20227;-67
2021/06/09 12:40:59;;;;;;;5.00;4.60;;;27.40;53.90;;;;;;4984718;28;20547;-66
2021/06/09 12:43:26;;;;;;;4.80;4.40;;;27.40;54.00;;;;;;4962857;28;20290;-66
2021/06/09 12:45:59;;;;;;;4.40;4.10;;;27.40;53.90;;;;;;4987538;28;20223;-67
2021/06/09 12:48:28;;;;;;;4.60;4.20;;;27.40;53.90;;;;;;4989804;28;20263;-67
2021/06/09 12:50:58;;;;;;;5.47;5.00;;;27.40;53.90;;;;;;4999296;28;20231;-66
2021/06/09 12:53:34;;;;;;;4.30;4.00;;;27.40;53.90;;;;;;4969022;28;20207;-67
2021/06/09 12:56:25;;;;;;;5.10;4.80;;;27.40;53.90;;;;;;4988887;28;20535;-68
2021/06/09 12:58:56;;;;;;;4.80;4.50;;;27.40;53.90;;;;;;4986590;28;20250;-69
2021/06/09 13:01:27;;;;;;;4.50;4.20;;;27.50;54.00;;;;;;4987740;28;20227;-67
2021/06/09 13:03:56;;;;;;;4.23;3.93;;;27.50;54.00;;;;;;4972751;28;20208;-67
2021/06/09 13:06:25;;;;;;;4.43;4.13;;;27.50;54.10;;;;;;4986544;28;20199;-68
2021/06/09 13:09:04;;;;;;;4.47;4.07;;;27.50;54.00;;;;;;4974177;28;20208;-68
2021/06/09 13:11:33;;;;;;;4.50;4.10;;;27.50;54.10;;;;;;4985112;28;20208;-68
2021/06/09 13:14:05;;;;;;;3.80;3.57;;;27.50;54.00;;;;;;4983140;28;20397;-68
2021/06/09 13:16:39;;;;;;;4.23;3.93;;;27.50;54.10;;;;;;4987419;28;20208;-68
2021/06/09 13:19:15;;;;;;;5.07;4.67;;;27.60;54.10;;;;;;4992769;28;20239;-68
2021/06/09 13:21:49;;;;;;;5.70;4.40;;;27.60;54.30;;;;;;4990659;28;20286;-68
2021/06/09 13:24:37;;;;;;;4.53;4.23;;;27.60;54.20;;;;;;4987077;28;20184;-68
2021/06/09 13:27:30;;;;;;;4.87;4.50;;;27.60;54.20;;;;;;4989267;28;20211;-67